Time;durP1;ratioP1;P1;durP2;ratioP2;P2;SDS_P1;SDS_P2;PMS_P1;PMS_P2;Temp;Humidity;BMP_temperature;BMP_pressure;BME280_temperature;BME280_humidity;BME280_pressure;Samples;Min_cycle;Max_cycle;Signal;HPM_P1;HPM_P2
2020/12/31 02:25:46;;;;;;;;;;;;;;;;;;;;;
2020/12/31 02:28:35;;;;;;;;;;;;;;;;;;;;;
2020/12/31 02:31:42;;;;;;;7.55;1.90;;;6.20;99.90;;;;;;5853934;24;20051;-96
2020/12/31 02:35:12;;;;;;;;;;;;;;;;;;;;;
2020/12/31 03:37:18;;;;;;;1.48;0.60;;;5.60;99.90;;;;;;6025464;23;20280;-96
2020/12/31 03:53:10;;;;;;;;;;;;;;;;;;;;;
2020/12/31 03:56:39;;;;;;;;;;;;;;;;;;;;;
2020/12/31 04:39:41;;;;;;;1.55;0.38;;;4.90;99.90;;;;;;5822089;22;9254487;-96
2020/12/31 04:42:12;;;;;;;3.30;0.63;;;4.90;99.90;;;;;;6194114;23;20041;-96
2020/12/31 04:45:01;;;;;;;3.00;0.50;;;5.00;99.90;;;;;;6195006;23;20027;-96
2020/12/31 08:39:28;;;;;;;3.55;1.10;;;3.80;99.90;;;;;;6185734;22;20032;-93
2020/12/31 08:49:52;;;;;;;4.72;1.17;;;3.90;99.90;;;;;;5900941;24;20053;-96
2020/12/31 08:53:07;;;;;;;3.88;0.93;;;4.00;99.90;;;;;;5901978;24;20092;-96
2020/12/31 08:55:47;;;;;;;4.47;0.82;;;4.00;99.90;;;;;;5899632;24;20022;-96
2020/12/31 08:58:44;;;;;;;3.20;0.80;;;4.10;99.90;;;;;;5898538;24;20129;-96
2020/12/31 09:01:36;;;;;;;2.80;0.60;;;4.10;99.90;;;;;;5897197;24;20527;-96
2020/12/31 09:04:26;;;;;;;1.63;0.60;;;4.20;99.90;;;;;;5904278;24;20425;-96
2020/12/31 09:07:14;;;;;;;3.70;1.35;;;4.20;99.90;;;;;;5893901;24;20029;-96
2020/12/31 09:09:50;;;;;;;5.40;0.85;;;4.30;99.90;;;;;;5899022;24;20021;-96
2020/12/31 09:12:24;;;;;;;3.22;0.80;;;4.30;99.90;;;;;;5900307;24;20026;-96
2020/12/31 09:15:21;;;;;;;1.65;0.60;;;4.40;99.90;;;;;;5900079;24;20310;-96
2020/12/31 09:18:24;;;;;;;5.75;1.58;;;4.50;99.90;;;;;;5900610;24;20059;-96
2020/12/31 09:21:15;;;;;;;4.03;0.85;;;4.60;99.90;;;;;;6007491;23;20232;-96
2020/12/31 09:23:45;;;;;;;5.50;0.80;;;4.70;99.90;;;;;;6015547;23;20043;-96
2020/12/31 09:30:24;;;;;;;3.63;1.30;;;5.00;99.90;;;;;;6039542;23;20681;-96
2020/12/31 09:33:07;;;;;;;3.75;0.88;;;5.20;99.90;;;;;;6018709;23;20042;-96
2020/12/31 09:35:46;;;;;;;3.60;0.90;;;5.30;99.90;;;;;;6017941;23;20034;-95
2020/12/31 09:38:18;;;;;;;2.72;0.90;;;5.30;99.90;;;;;;6014544;23;20106;-95
2020/12/31 09:41:03;;;;;;;1.55;0.70;;;5.30;99.90;;;;;;6017106;23;20046;-96
2020/12/31 10:29:09;;;;;;;2.97;1.30;;;5.00;99.90;;;;;;6178939;23;20028;-96
2020/12/31 10:31:50;;;;;;;3.30;1.15;;;5.00;99.90;;;;;;6161851;23;20059;-96
2020/12/31 10:34:27;;;;;;;2.78;1.42;;;5.00;99.90;;;;;;6159860;23;20028;-96
2020/12/31 10:37:04;;;;;;;6.03;1.38;;;5.10;99.90;;;;;;6158304;23;20524;-95
2020/12/31 10:39:35;;;;;;;4.68;1.40;;;5.20;99.90;;;;;;6159500;23;20021;-95
2020/12/31 10:42:06;;;;;;;3.63;1.20;;;5.40;99.90;;;;;;6159360;23;20087;-95
2020/12/31 10:44:41;;;;;;;3.20;1.20;;;5.50;99.90;;;;;;6161251;23;20016;-89
2020/12/31 10:47:09;;;;;;;4.60;1.20;;;5.60;99.90;;;;;;6157895;23;20326;-88
2020/12/31 10:49:36;;;;;;;2.88;1.20;;;5.70;99.90;;;;;;6157070;23;20361;-90
2020/12/31 10:52:04;;;;;;;4.07;1.10;;;5.80;99.90;;;;;;6158938;23;20021;-90
2020/12/31 10:54:35;;;;;;;3.00;1.00;;;5.90;99.90;;;;;;6159080;23;20020;-90
2020/12/31 10:57:02;;;;;;;5.30;1.17;;;6.10;99.90;;;;;;6159003;23;20032;-91
2020/12/31 10:59:33;;;;;;;3.72;0.90;;;6.20;99.90;;;;;;6159238;23;20040;-94
2020/12/31 11:02:06;;;;;;;3.97;1.23;;;6.30;99.90;;;;;;6159420;23;20036;-88
2020/12/31 11:04:35;;;;;;;6.28;1.30;;;6.40;99.90;;;;;;6158740;23;20425;-91
2020/12/31 11:07:03;;;;;;;4.20;1.00;;;6.50;99.90;;;;;;6159709;23;20028;-89
2020/12/31 11:09:32;;;;;;;2.80;0.90;;;6.40;99.90;;;;;;6158883;23;20040;-93
2020/12/31 11:12:00;;;;;;;5.03;1.20;;;6.30;99.90;;;;;;6159516;23;20062;-92
2020/12/31 11:14:36;;;;;;;3.03;0.80;;;6.30;99.90;;;;;;6159434;23;20021;-92
2020/12/31 11:17:05;;;;;;;2.78;0.77;;;6.20;99.90;;;;;;6158350;23;20028;-91
2020/12/31 11:19:34;;;;;;;1.92;0.75;;;6.20;99.90;;;;;;6158128;23;20025;-90
2020/12/31 11:22:01;;;;;;;;;;;6.10;99.90;;;;;;6158026;23;20016;-93
2020/12/31 11:24:30;;;;;;;2.85;0.68;;;6.10;99.90;;;;;;6160036;23;19920;-90
2020/12/31 11:26:58;;;;;;;4.82;0.90;;;6.00;99.90;;;;;;6182850;23;20040;-90
2020/12/31 11:29:25;;;;;;;8.02;1.02;;;5.90;99.90;;;;;;6182953;23;20024;-90
2020/12/31 11:31:52;;;;;;;3.03;1.05;;;5.90;99.90;;;;;;6185074;23;20032;-91
2020/12/31 11:34:26;;;;;;;4.63;1.17;;;5.90;99.90;;;;;;6183429;23;20429;-91
2020/12/31 11:36:55;;;;;;;5.28;1.00;;;5.90;99.90;;;;;;6185150;23;20020;-91
2020/12/31 11:39:24;;;;;;;1.90;0.90;;;6.00;99.90;;;;;;6189028;23;20017;-91
2020/12/31 11:41:56;;;;;;;5.00;0.93;;;6.00;99.90;;;;;;6186494;23;20021;-91
2020/12/31 11:44:24;;;;;;;1.80;1.02;;;6.10;99.90;;;;;;6186605;23;20017;-91
2020/12/31 11:46:51;;;;;;;2.90;1.03;;;6.10;99.90;;;;;;6189421;23;20021;-89
2020/12/31 11:49:22;;;;;;;6.80;1.65;;;6.10;99.90;;;;;;6187848;23;20029;-93
2020/12/31 11:51:50;;;;;;;3.28;0.88;;;6.20;99.90;;;;;;6185070;23;20017;-94
2020/12/31 11:54:17;;;;;;;5.18;0.98;;;6.20;99.90;;;;;;6184647;23;20069;-92
2020/12/31 11:56:46;;;;;;;4.03;0.80;;;6.20;99.90;;;;;;6186798;23;20044;-89
2020/12/31 11:59:24;;;;;;;2.67;0.80;;;6.30;99.90;;;;;;6185262;23;20012;-88
2020/12/31 12:01:52;;;;;;;3.47;0.90;;;6.30;99.90;;;;;;6187259;23;20017;-95
2020/12/31 12:04:20;;;;;;;4.97;1.08;;;6.30;99.90;;;;;;6185926;23;20013;-93
2020/12/31 12:06:49;;;;;;;3.23;1.57;;;6.30;99.90;;;;;;6188355;23;20100;-94
2020/12/31 12:09:17;;;;;;;3.63;1.00;;;6.40;99.90;;;;;;6186236;23;20017;-92
2020/12/31 12:11:45;;;;;;;5.80;1.70;;;6.40;99.90;;;;;;6186129;23;20091;-93
2020/12/31 12:14:13;;;;;;;5.05;1.05;;;6.40;99.90;;;;;;6189008;23;20488;-92
2020/12/31 12:16:41;;;;;;;5.30;1.00;;;6.40;99.90;;;;;;6185925;23;20444;-94
2020/12/31 12:19:11;;;;;;;2.60;1.10;;;6.50;99.90;;;;;;6186674;23;20129;-94
2020/12/31 12:21:38;;;;;;;4.55;1.23;;;6.50;99.90;;;;;;6186206;23;20075;-92
2020/12/31 12:24:06;;;;;;;4.60;1.00;;;6.50;99.90;;;;;;6186440;23;20063;-91
2020/12/31 12:26:40;;;;;;;3.65;1.20;;;6.50;99.90;;;;;;6162678;23;20072;-91
2020/12/31 12:32:55;;;;;;;4.05;1.13;;;6.60;99.90;;;;;;6147239;23;20032;-95
2020/12/31 12:36:18;;;;;;;4.68;1.00;;;6.50;99.90;;;;;;6167903;23;20049;-96
2020/12/31 12:39:09;;;;;;;2.53;0.80;;;6.60;99.90;;;;;;6049862;23;20018;-93
2020/12/31 12:41:37;;;;;;;5.57;1.00;;;6.60;99.90;;;;;;6043115;23;20105;-93
2020/12/31 12:44:04;;;;;;;5.38;1.13;;;6.60;99.90;;;;;;6048611;23;20023;-94
2020/12/31 12:46:32;;;;;;;3.45;0.90;;;6.70;99.90;;;;;;6043174;23;20105;-88
2020/12/31 12:49:27;;;;;;;1.65;0.75;;;6.70;99.90;;;;;;6045573;23;20019;-96
2020/12/31 12:52:07;;;;;;;2.50;0.85;;;6.80;99.90;;;;;;6051566;23;20359;-96
2020/12/31 12:55:25;;;;;;;6.97;1.25;;;6.80;99.90;;;;;;5943548;24;20032;-96
2020/12/31 12:58:09;;;;;;;3.90;0.90;;;6.90;99.90;;;;;;5940613;24;20024;-96
2020/12/31 13:00:38;;;;;;;3.92;1.05;;;7.00;99.90;;;;;;5936359;24;20025;-93
2020/12/31 13:03:27;;;;;;;5.20;1.00;;;7.10;99.90;;;;;;5975812;23;20019;-94
2020/12/31 13:05:57;;;;;;;3.45;1.13;;;7.20;99.90;;;;;;6047876;23;20427;-93
2020/12/31 13:08:29;;;;;;;6.05;0.95;;;7.20;99.90;;;;;;6047357;23;20063;-93
2020/12/31 13:11:15;;;;;;;3.83;0.90;;;7.20;99.90;;;;;;6044788;23;20023;-94
2020/12/31 13:13:43;;;;;;;3.63;0.80;;;7.10;99.90;;;;;;6134529;23;20017;-94
2020/12/31 13:16:11;;;;;;;4.13;0.93;;;7.00;99.90;;;;;;6159158;23;20369;-93
2020/12/31 13:18:38;;;;;;;1.17;0.77;;;7.00;99.90;;;;;;6159535;23;20071;-93
2020/12/31 13:21:05;;;;;;;2.25;0.65;;;6.90;99.90;;;;;;6159858;23;20017;-93
2020/12/31 13:23:33;;;;;;;1.70;0.68;;;6.90;99.90;;;;;;6160097;23;20025;-92
2020/12/31 13:26:03;;;;;;;;;;;7.00;99.90;;;;;;6161138;23;20017;-94
2020/12/31 13:28:34;;;;;;;2.25;0.60;;;6.90;99.90;;;;;;6158945;23;19919;-92
2020/12/31 13:31:03;;;;;;;1.83;0.60;;;6.90;99.90;;;;;;6159282;23;20096;-95
2020/12/31 13:33:30;;;;;;;3.70;0.60;;;6.90;99.90;;;;;;6177146;23;20033;-93
2020/12/31 13:35:59;;;;;;;3.60;0.80;;;6.90;99.90;;;;;;6183237;23;20032;-93
2020/12/31 13:38:26;;;;;;;4.50;1.10;;;7.00;99.90;;;;;;6184263;23;20017;-93
2020/12/31 13:40:54;;;;;;;1.98;0.70;;;7.00;99.90;;;;;;6183632;23;20072;-94
2020/12/31 13:43:22;;;;;;;4.13;0.60;;;7.00;99.90;;;;;;6184361;23;21047;-94
2020/12/31 13:45:50;;;;;;;4.65;0.70;;;7.10;99.90;;;;;;6184534;23;20021;-96
2020/12/31 13:48:16;;;;;;;3.80;0.73;;;7.10;99.90;;;;;;6183775;23;20017;-93
2020/12/31 13:50:45;;;;;;;9.30;0.90;;;7.10;99.90;;;;;;6183712;23;20047;-93
2020/12/31 13:53:13;;;;;;;1.95;0.60;;;7.10;99.90;;;;;;6184712;23;20013;-93
2020/12/31 13:55:40;;;;;;;3.45;0.73;;;7.10;99.90;;;;;;6184461;23;20329;-94
2020/12/31 13:58:07;;;;;;;1.42;0.70;;;7.10;99.90;;;;;;6183726;23;20017;-93
2020/12/31 14:00:38;;;;;;;1.77;0.60;;;7.10;99.90;;;;;;6176009;22;20025;-93
2020/12/31 14:03:07;;;;;;;3.25;0.70;;;7.00;99.90;;;;;;6159643;23;20017;-95
2020/12/31 14:05:34;;;;;;;5.67;0.83;;;7.00;99.90;;;;;;6159045;23;20027;-95
2020/12/31 14:08:02;;;;;;;2.22;0.60;;;7.00;99.90;;;;;;6159832;23;20023;-92
2020/12/31 14:10:34;;;;;;;4.15;0.73;;;7.00;99.90;;;;;;6162584;23;20024;-95
2020/12/31 14:13:02;;;;;;;3.70;1.00;;;7.00;99.90;;;;;;6160208;23;20065;-93
2020/12/31 14:15:31;;;;;;;2.53;0.70;;;7.10;99.90;;;;;;6162305;23;20104;-92
2020/12/31 14:18:02;;;;;;;8.17;1.00;;;7.10;99.90;;;;;;6159440;23;20113;-92
2020/12/31 14:20:30;;;;;;;2.33;0.65;;;7.10;99.90;;;;;;6160820;23;20051;-92
2020/12/31 14:22:57;;;;;;;2.30;0.70;;;7.10;99.90;;;;;;6160667;23;20021;-92
2020/12/31 14:25:25;;;;;;;3.33;0.93;;;7.10;99.90;;;;;;6160509;23;20021;-92
2020/12/31 14:27:53;;;;;;;2.30;0.82;;;7.00;99.90;;;;;;6163568;23;20448;-95
2020/12/31 14:30:33;;;;;;;3.80;1.23;;;6.90;99.90;;;;;;6161885;23;20451;-96
2020/12/31 14:33:02;;;;;;;3.97;0.70;;;6.90;99.90;;;;;;6158812;23;20028;-89
2020/12/31 14:35:31;;;;;;;2.38;1.00;;;6.90;99.90;;;;;;6158421;23;20059;-96
2020/12/31 14:38:01;;;;;;;4.53;0.80;;;7.00;99.90;;;;;;6160224;23;20048;-96
2020/12/31 14:40:31;;;;;;;2.58;0.63;;;7.00;99.90;;;;;;6160235;23;20052;-96
2020/12/31 14:43:01;;;;;;;5.15;0.93;;;7.00;99.90;;;;;;6159503;23;20037;-93
2020/12/31 14:45:30;;;;;;;1.75;0.82;;;6.90;99.90;;;;;;6161639;23;20021;-95
2020/12/31 14:47:59;;;;;;;3.97;0.73;;;7.00;99.90;;;;;;6159620;23;20017;-95
2020/12/31 14:50:33;;;;;;;1.47;0.50;;;6.90;99.90;;;;;;6160897;23;20025;-96
2020/12/31 14:53:01;;;;;;;2.90;0.70;;;6.90;99.90;;;;;;6162011;23;20013;-93
2020/12/31 14:55:57;;;;;;;2.03;0.75;;;6.90;99.90;;;;;;6169327;23;20021;-96
2020/12/31 14:58:25;;;;;;;2.50;0.68;;;6.90;99.90;;;;;;6159877;23;20024;-96
2020/12/31 15:00:53;;;;;;;2.22;0.70;;;6.80;99.90;;;;;;6158429;23;20025;-96
2020/12/31 15:03:22;;;;;;;4.57;0.63;;;6.70;99.90;;;;;;6160545;23;20401;-96
2020/12/31 15:05:49;;;;;;;2.67;0.70;;;6.60;99.90;;;;;;6159914;23;20021;-90
2020/12/31 15:08:17;;;;;;;3.20;0.80;;;6.60;99.90;;;;;;6159661;23;20028;-96
2020/12/31 15:10:47;;;;;;;2.53;0.75;;;6.50;99.90;;;;;;6159609;23;20044;-96
2020/12/31 15:13:14;;;;;;;;;;;6.50;99.90;;;;;;6159251;23;20021;-93
2020/12/31 15:15:48;;;;;;;9.88;1.00;;;6.30;99.90;;;;;;6160179;23;19923;-94
2020/12/31 15:18:15;;;;;;;5.65;0.75;;;6.30;99.90;;;;;;6159253;23;20440;-96
2020/12/31 15:20:49;;;;;;;3.15;0.70;;;6.20;99.90;;;;;;6159374;23;20298;-96
2020/12/31 15:23:19;;;;;;;4.90;0.70;;;6.10;99.90;;;;;;6159097;23;20066;-96
2020/12/31 15:25:47;;;;;;;;;;;6.10;99.90;;;;;;6159656;23;20021;-94
2020/12/31 15:28:15;;;;;;;2.05;1.00;;;6.00;99.90;;;;;;6161119;23;19916;-96
2020/12/31 15:30:42;;;;;;;4.65;0.77;;;6.00;99.90;;;;;;6160588;23;20346;-96
2020/12/31 15:33:10;;;;;;;4.60;0.80;;;6.00;99.90;;;;;;6160313;23;20027;-96
2020/12/31 15:35:37;;;;;;;6.65;0.85;;;5.90;99.90;;;;;;6160444;23;20031;-96
2020/12/31 15:38:07;;;;;;;5.50;0.80;;;5.90;99.90;;;;;;6160956;23;20019;-96
2020/12/31 15:40:36;;;;;;;3.75;1.08;;;5.90;99.90;;;;;;6160676;23;20017;-96
2020/12/31 15:43:03;;;;;;;3.60;0.60;;;5.90;99.90;;;;;;6159367;23;20044;-96
2020/12/31 15:45:34;;;;;;;1.33;0.70;;;5.90;99.90;;;;;;6165135;23;20017;-96
2020/12/31 15:48:05;;;;;;;4.55;1.05;;;5.80;99.90;;;;;;6165706;23;20417;-96
2020/12/31 15:50:35;;;;;;;4.68;1.25;;;5.80;99.90;;;;;;6159926;23;20024;-95
2020/12/31 15:53:03;;;;;;;2.28;0.70;;;5.80;99.90;;;;;;6161002;23;20079;-96
2020/12/31 15:55:31;;;;;;;3.08;0.50;;;5.70;99.90;;;;;;6159899;23;20021;-96
2020/12/31 15:58:00;;;;;;;1.42;0.73;;;5.70;99.90;;;;;;6160381;23;20027;-96
2020/12/31 16:00:29;;;;;;;0.47;0.30;;;5.70;99.90;;;;;;6161252;23;20025;-96
2020/12/31 16:02:59;;;;;;;0.38;0.20;;;5.60;99.90;;;;;;6162149;23;20017;-96
2020/12/31 16:05:30;;;;;;;1.23;0.65;;;5.50;99.90;;;;;;6162341;23;20049;-96
2020/12/31 16:07:57;;;;;;;2.65;1.23;;;5.40;99.90;;;;;;6161252;23;20021;-96
2020/12/31 16:10:27;;;;;;;4.75;1.13;;;5.20;99.90;;;;;;6160940;23;20017;-96
2020/12/31 16:12:58;;;;;;;1.10;0.80;;;5.10;99.90;;;;;;6166805;23;20025;-96
2020/12/31 16:15:27;;;;;;;1.88;1.10;;;5.00;99.90;;;;;;6160731;23;20014;-96
2020/12/31 16:17:56;;;;;;;2.67;1.05;;;4.90;99.90;;;;;;6161684;23;20028;-96
2020/12/31 16:20:25;;;;;;;1.75;0.80;;;4.80;99.90;;;;;;6162074;23;20460;-96
2020/12/31 16:22:56;;;;;;;1.20;0.45;;;4.70;99.90;;;;;;6162156;23;20041;-96
2020/12/31 16:25:28;;;;;;;2.60;0.50;;;4.60;99.90;;;;;;6161832;23;20025;-96
2020/12/31 16:27:56;;;;;;;1.55;0.57;;;4.50;99.90;;;;;;6163552;23;20428;-96
2020/12/31 16:30:25;;;;;;;;;;;4.40;99.90;;;;;;6162971;23;20028;-96
2020/12/31 16:32:59;;;;;;;2.35;1.08;;;4.40;99.90;;;;;;6161799;23;20329;-96
2020/12/31 16:35:29;;;;;;;4.90;3.47;;;4.30;99.90;;;;;;6159187;23;20017;-96
2020/12/31 16:38:02;;;;;;;4.50;4.07;;;4.30;99.90;;;;;;6161362;23;20017;-96
2020/12/31 16:41:01;;;;;;;5.20;3.00;;;4.30;99.90;;;;;;6170918;23;20071;-96
2020/12/31 16:46:36;;;;;;;3.10;1.98;;;4.20;99.90;;;;;;6182762;22;19916;-90
2020/12/31 16:49:34;;;;;;;1.80;1.25;;;4.20;99.90;;;;;;6167568;23;20020;-90
2020/12/31 17:13:45;;;;;;;3.28;0.80;;;4.00;99.90;;;;;;6159927;23;20345;-94
2020/12/31 17:16:30;;;;;;;2.65;0.82;;;3.90;99.90;;;;;;6166221;23;20068;-96
2020/12/31 19:01:27;;;;;;;13.50;8.13;;;2.60;99.90;;;;;;6180719;22;20032;-96
2020/12/31 19:03:55;;;;;;;11.00;9.20;;;2.60;99.90;;;;;;6165970;23;20068;-96
2020/12/31 19:06:23;;;;;;;5.88;4.53;;;2.60;99.90;;;;;;6161559;23;20021;-96
2020/12/31 19:08:50;;;;;;;11.23;6.05;;;2.60;99.90;;;;;;6160343;23;20028;-93
2020/12/31 19:11:25;;;;;;;10.52;6.50;;;2.60;99.90;;;;;;6158903;23;20071;-94
2020/12/31 19:13:58;;;;;;;5.07;2.60;;;2.60;99.90;;;;;;6158364;23;20445;-96
2020/12/31 19:16:26;;;;;;;6.20;2.42;;;2.60;99.90;;;;;;6159696;23;20043;-89
2020/12/31 19:18:59;;;;;;;7.15;5.60;;;2.60;99.90;;;;;;6159895;23;20013;-96
2020/12/31 19:21:30;;;;;;;21.13;13.32;;;2.60;99.90;;;;;;6160721;23;20017;-96
2020/12/31 19:23:57;;;;;;;11.65;6.80;;;2.60;99.90;;;;;;6158659;23;20024;-95
2020/12/31 19:26:24;;;;;;;7.15;3.25;;;2.70;99.90;;;;;;6159417;23;20021;-96
2020/12/31 19:28:52;;;;;;;6.00;3.95;;;2.70;99.90;;;;;;6159340;23;20021;-96
2020/12/31 19:31:19;;;;;;;5.05;1.52;;;2.90;99.90;;;;;;6160606;23;20016;-93
2020/12/31 19:33:47;;;;;;;5.50;1.23;;;2.90;99.90;;;;;;6158590;23;20095;-95
2020/12/31 19:36:15;;;;;;;5.00;1.42;;;3.00;99.90;;;;;;6161885;23;20087;-95
2020/12/31 19:38:44;;;;;;;5.40;2.53;;;3.10;99.90;;;;;;6159355;23;20017;-95
2020/12/31 19:41:14;;;;;;;3.58;1.95;;;3.20;99.90;;;;;;6160187;23;20017;-95
2020/12/31 19:43:41;;;;;;;5.25;1.50;;;3.20;99.90;;;;;;6161368;23;20024;-95
2020/12/31 19:46:16;;;;;;;6.80;3.72;;;3.20;99.90;;;;;;6161988;23;20021;-96
2020/12/31 19:48:47;;;;;;;3.05;1.48;;;3.20;99.90;;;;;;6160978;23;20013;-94
2020/12/31 19:51:15;;;;;;;3.90;1.10;;;3.20;99.90;;;;;;6159112;23;20045;-95
2020/12/31 19:53:43;;;;;;;3.42;1.20;;;3.10;99.90;;;;;;6158364;23;20385;-94
2020/12/31 19:56:11;;;;;;;4.50;1.20;;;3.10;99.90;;;;;;6158271;23;20028;-94
2020/12/31 19:58:43;;;;;;;6.00;1.00;;;3.10;99.90;;;;;;6159469;23;20084;-94
2020/12/31 20:01:11;;;;;;;4.78;1.50;;;3.10;99.90;;;;;;6160951;23;20104;-94
2020/12/31 20:03:41;;;;;;;2.70;0.85;;;3.10;99.90;;;;;;6183525;23;20453;-94
2020/12/31 20:06:12;;;;;;;2.53;1.17;;;3.10;99.90;;;;;;6183606;23;20087;-95
2020/12/31 20:08:40;;;;;;;2.38;1.23;;;3.10;99.90;;;;;;6183635;23;20017;-95
2020/12/31 20:11:07;;;;;;;3.55;1.00;;;3.00;99.90;;;;;;6183808;23;20094;-93
2020/12/31 20:13:36;;;;;;;4.22;2.42;;;3.00;99.90;;;;;;6182729;23;20036;-95
2020/12/31 20:16:05;;;;;;;18.42;9.23;;;3.00;99.90;;;;;;6193698;23;20021;-95
2020/12/31 20:18:35;;;;;;;7.43;1.67;;;2.90;99.90;;;;;;6184648;23;20329;-95
2020/12/31 20:21:06;;;;;;;5.22;1.45;;;2.90;99.90;;;;;;6183001;23;20024;-95
2020/12/31 20:23:33;;;;;;;4.75;2.33;;;2.80;99.90;;;;;;6182790;23;20383;-95
2020/12/31 20:26:02;;;;;;;2.78;0.82;;;2.80;99.90;;;;;;6183403;23;20088;-93
2020/12/31 20:28:35;;;;;;;2.25;0.77;;;2.80;99.90;;;;;;6183586;23;20021;-96
2020/12/31 20:31:03;;;;;;;1.90;0.70;;;2.80;99.90;;;;;;6184155;23;20025;-96
2020/12/31 20:33:32;;;;;;;1.35;0.70;;;2.80;99.90;;;;;;6184155;23;20021;-96
2020/12/31 20:36:02;;;;;;;2.45;1.23;;;2.80;99.90;;;;;;6184990;23;20096;-96
2020/12/31 20:38:30;;;;;;;1.75;0.90;;;2.70;99.90;;;;;;6195830;23;20389;-94
2020/12/31 20:40:58;;;;;;;2.53;1.27;;;2.80;99.90;;;;;;6182932;23;20128;-96
2020/12/31 20:43:25;;;;;;;5.28;4.78;;;2.80;99.90;;;;;;6183675;23;20013;-95
2020/12/31 20:45:53;;;;;;;5.33;4.23;;;2.80;99.90;;;;;;6184266;23;20021;-94
2020/12/31 20:48:21;;;;;;;3.38;2.92;;;2.90;99.90;;;;;;6183642;23;20459;-95
2020/12/31 20:50:48;;;;;;;3.13;1.90;;;2.90;99.90;;;;;;6183235;23;20025;-95
2020/12/31 20:53:17;;;;;;;3.20;1.30;;;2.90;99.90;;;;;;6183059;23;20069;-93
2020/12/31 20:55:44;;;;;;;1.42;1.08;;;3.00;99.90;;;;;;6188236;23;20048;-94
2020/12/31 20:58:12;;;;;;;2.42;1.27;;;2.90;99.90;;;;;;6186195;23;20059;-94
2020/12/31 21:00:40;;;;;;;3.03;1.67;;;3.00;99.90;;;;;;6185316;23;20036;-93
2020/12/31 21:03:08;;;;;;;1.77;1.10;;;3.00;99.90;;;;;;6160609;23;20413;-96
2020/12/31 21:05:35;;;;;;;2.47;0.90;;;3.00;99.90;;;;;;6159695;23;20265;-94
2020/12/31 21:08:03;;;;;;;2.17;0.88;;;3.00;99.90;;;;;;6160828;23;20104;-93
2020/12/31 21:10:30;;;;;;;2.15;0.90;;;3.00;99.90;;;;;;6161998;23;20013;-93
2020/12/31 21:12:58;;;;;;;2.00;1.10;;;3.00;99.90;;;;;;6161036;23;20028;-93
2020/12/31 21:15:27;;;;;;;2.08;0.95;;;3.00;99.90;;;;;;6162068;23;20021;-93
2020/12/31 21:17:54;;;;;;;2.35;1.20;;;3.00;99.90;;;;;;6160603;23;20036;-93
2020/12/31 21:20:22;;;;;;;3.63;1.27;;;3.00;99.90;;;;;;6161133;23;20027;-93
2020/12/31 21:22:50;;;;;;;2.30;1.30;;;3.00;99.90;;;;;;6160321;23;20041;-93
2020/12/31 21:25:17;;;;;;;2.63;1.52;;;3.10;99.90;;;;;;6160531;23;20017;-92
2020/12/31 21:27:45;;;;;;;4.77;2.83;;;3.10;99.90;;;;;;6160858;23;20433;-93
2020/12/31 21:30:13;;;;;;;2.28;1.30;;;3.10;99.90;;;;;;6160762;23;20494;-93
2020/12/31 21:32:41;;;;;;;3.42;1.80;;;3.00;99.90;;;;;;6159840;23;20027;-92
2020/12/31 21:35:09;;;;;;;4.00;1.70;;;3.00;99.90;;;;;;6160339;23;20013;-92
2020/12/31 21:37:37;;;;;;;6.17;5.53;;;3.00;99.90;;;;;;6160402;23;20052;-92
2020/12/31 21:40:08;;;;;;;3.90;2.05;;;3.10;99.90;;;;;;6160117;23;20037;-93
2020/12/31 21:42:39;;;;;;;2.97;2.72;;;3.10;99.90;;;;;;6159533;23;20084;-92
2020/12/31 21:45:08;;;;;;;4.30;2.70;;;3.00;99.90;;;;;;6160004;23;20024;-93
2020/12/31 21:47:35;;;;;;;3.00;2.65;;;3.00;99.90;;;;;;6159042;23;20021;-92
2020/12/31 21:50:06;;;;;;;3.58;2.20;;;3.00;99.90;;;;;;6160038;23;20043;-93
2020/12/31 21:52:33;;;;;;;4.07;2.83;;;3.10;99.90;;;;;;6159527;23;20330;-92
2020/12/31 21:55:00;;;;;;;36.13;24.55;;;3.00;99.90;;;;;;6160008;23;20553;-92
2020/12/31 21:57:29;;;;;;;36.03;27.27;;;3.00;99.90;;;;;;6160380;23;20017;-93
2020/12/31 21:59:57;;;;;;;30.53;23.17;;;3.00;99.90;;;;;;6159861;23;20013;-94
2020/12/31 22:02:25;;;;;;;47.13;30.92;;;3.00;99.90;;;;;;6174226;23;20280;-93
2020/12/31 22:04:52;;;;;;;36.42;23.65;;;3.00;99.90;;;;;;6184275;23;20425;-93
2020/12/31 22:07:21;;;;;;;20.48;16.70;;;3.00;99.90;;;;;;6182748;23;20092;-92
2020/12/31 22:09:49;;;;;;;16.10;13.43;;;3.00;99.90;;;;;;6184009;23;20076;-93
2020/12/31 22:12:17;;;;;;;11.47;9.30;;;2.90;99.90;;;;;;6183851;23;20021;-93
2020/12/31 22:14:44;;;;;;;7.28;5.95;;;2.90;99.90;;;;;;6183796;23;20013;-93
2020/12/31 22:17:11;;;;;;;8.60;5.85;;;2.90;99.90;;;;;;6184145;23;20087;-93
2020/12/31 22:19:38;;;;;;;4.80;3.95;;;2.90;99.90;;;;;;6186660;23;20318;-93
2020/12/31 22:22:06;;;;;;;5.55;3.22;;;2.90;99.90;;;;;;6186561;23;20430;-92
2020/12/31 22:24:33;;;;;;;4.68;2.97;;;2.90;99.90;;;;;;6186900;23;20084;-93
2020/12/31 22:27:01;;;;;;;3.17;2.10;;;2.90;99.90;;;;;;6185530;23;20401;-93
2020/12/31 22:29:29;;;;;;;3.65;1.90;;;2.90;99.90;;;;;;6185753;23;20016;-92
2020/12/31 22:32:01;;;;;;;2.80;1.77;;;2.90;99.90;;;;;;6185077;23;20080;-93
2020/12/31 22:34:29;;;;;;;1.50;1.35;;;2.80;99.90;;;;;;6185674;23;20025;-93
2020/12/31 22:36:59;;;;;;;1.95;1.25;;;2.80;99.90;;;;;;6184884;23;20028;-93
2020/12/31 22:39:27;;;;;;;2.28;1.55;;;2.80;99.90;;;;;;6185268;23;20025;-93
2020/12/31 22:41:55;;;;;;;3.37;1.30;;;2.80;99.90;;;;;;6183816;23;20028;-92
2020/12/31 22:44:23;;;;;;;;;;;2.80;99.90;;;;;;6185258;23;20260;-94
2020/12/31 22:47:03;;;;;;;2.92;1.00;;;2.80;99.90;;;;;;6184738;23;19916;-93
2020/12/31 22:49:34;;;;;;;2.85;1.15;;;2.80;99.90;;;;;;6185469;23;20021;-93
2020/12/31 22:52:07;;;;;;;3.33;1.45;;;2.70;99.90;;;;;;6184979;23;20024;-93
2020/12/31 22:54:38;;;;;;;4.30;2.47;;;2.70;99.90;;;;;;6184346;23;20028;-93
2020/12/31 22:57:08;;;;;;;2.97;2.30;;;2.70;99.90;;;;;;6184263;23;20027;-93
2020/12/31 22:59:36;;;;;;;4.57;2.92;;;2.70;99.90;;;;;;6184313;23;20028;-93
2020/12/31 23:02:06;;;;;;;2.85;2.58;;;2.80;99.90;;;;;;6177372;23;20044;-93
2020/12/31 23:04:34;;;;;;;3.00;2.60;;;2.70;99.90;;;;;;6184563;23;20021;-93
2020/12/31 23:07:05;;;;;;;2.75;2.40;;;2.80;99.90;;;;;;6184041;23;20025;-93
2020/12/31 23:09:36;;;;;;;4.47;3.17;;;2.80;99.90;;;;;;6184123;23;20017;-93
2020/12/31 23:12:06;;;;;;;4.47;2.50;;;2.70;99.90;;;;;;6183766;23;20021;-93
2020/12/31 23:14:34;;;;;;;4.95;2.63;;;2.80;99.90;;;;;;6184321;23;21086;-93
2020/12/31 23:17:02;;;;;;;4.03;2.60;;;2.80;99.90;;;;;;6183648;23;20039;-93
2020/12/31 23:19:30;;;;;;;4.00;2.35;;;2.80;99.90;;;;;;6184025;23;20021;-93
2020/12/31 23:21:58;;;;;;;5.43;3.10;;;2.80;99.90;;;;;;6184016;23;20029;-92
2020/12/31 23:24:25;;;;;;;6.88;3.67;;;2.80;99.90;;;;;;6183848;23;20017;-92
2020/12/31 23:26:53;;;;;;;9.50;4.05;;;2.80;99.90;;;;;;6184029;23;20439;-92
2020/12/31 23:29:21;;;;;;;6.35;3.53;;;2.80;99.90;;;;;;6183393;23;20020;-92
2020/12/31 23:31:50;;;;;;;3.85;2.22;;;2.80;99.90;;;;;;6183019;23;20373;-92
2020/12/31 23:34:18;;;;;;;4.75;2.20;;;2.80;99.90;;;;;;6183435;23;20500;-93
2020/12/31 23:36:48;;;;;;;7.53;4.35;;;2.80;99.90;;;;;;6183353;23;20021;-93
2020/12/31 23:39:19;;;;;;;;;;;2.80;99.90;;;;;;6185720;23;20017;-92
2020/12/31 23:41:47;;;;;;;4.22;2.30;;;2.90;99.90;;;;;;6184181;23;19923;-90
2020/12/31 23:44:16;;;;;;;3.95;2.05;;;2.80;99.90;;;;;;6184760;23;20137;-91
2020/12/31 23:46:45;;;;;;;2.42;1.67;;;2.80;99.90;;;;;;6184999;23;20338;-92
2020/12/31 23:49:16;;;;;;;5.07;2.72;;;2.80;99.90;;;;;;6183551;23;20484;-92
2020/12/31 23:51:45;;;;;;;5.30;2.75;;;2.80;99.90;;;;;;6184432;23;20021;-92
2020/12/31 23:54:15;;;;;;;3.97;2.70;;;2.80;99.90;;;;;;6184174;23;20020;-92
2020/12/31 23:56:46;;;;;;;2.83;2.20;;;2.80;99.90;;;;;;6184417;23;20021;-92
2020/12/31 23:59:16;;;;;;;4.35;2.83;;;2.90;99.90;;;;;;6183720;23;20017;-92
